sensor_id;sensor_type;location;lat;lon;timestamp;P1;durP1;ratioP1;P2;durP2;ratioP2
27438;SDS011;14887;51.252;7.470;2022-10-19T00:01:39;18.60;;;3.80;;
27438;SDS011;14887;51.252;7.470;2022-10-19T00:04:05;23.27;;;3.77;;
27438;SDS011;14887;51.252;7.470;2022-10-19T00:06:31;13.53;;;4.17;;
27438;SDS011;14887;51.252;7.470;2022-10-19T00:09:03;9.20;;;3.37;;
27438;SDS011;14887;51.252;7.470;2022-10-19T00:11:38;13.37;;;3.27;;
27438;SDS011;14887;51.252;7.470;2022-10-19T00:14:06;11.60;;;3.80;;
27438;SDS011;14887;51.252;7.470;2022-10-19T00:16:34;9.40;;;3.00;;
27438;SDS011;14887;51.252;7.470;2022-10-19T00:19:02;20.20;;;3.40;;
27438;SDS011;14887;51.252;7.470;2022-10-19T00:21:30;9.60;;;3.37;;
27438;SDS011;14887;51.252;7.470;2022-10-19T00:23:56;13.50;;;2.97;;
27438;SDS011;14887;51.252;7.470;2022-10-19T00:26:22;14.07;;;3.40;;
27438;SDS011;14887;51.252;7.470;2022-10-19T00:28:48;12.50;;;2.80;;
27438;SDS011;14887;51.252;7.470;2022-10-19T00:31:15;15.07;;;3.90;;
27438;SDS011;14887;51.252;7.470;2022-10-19T00:33:42;13.23;;;3.37;;
27438;SDS011;14887;51.252;7.470;2022-10-19T00:36:14;15.47;;;3.53;;
27438;SDS011;14887;51.252;7.470;2022-10-19T00:38:44;7.23;;;3.10;;
27438;SDS011;14887;51.252;7.470;2022-10-19T00:41:10;18.47;;;3.87;;
27438;SDS011;14887;51.252;7.470;2022-10-19T00:46:23;20.80;;;3.53;;
27438;SDS011;14887;51.252;7.470;2022-10-19T00:48:49;6.00;;;3.00;;
27438;SDS011;14887;51.252;7.470;2022-10-19T00:51:16;8.10;;;3.00;;
27438;SDS011;14887;51.252;7.470;2022-10-19T00:53:42;5.20;;;2.73;;
27438;SDS011;14887;51.252;7.470;2022-10-19T00:56:09;14.20;;;3.90;;
27438;SDS011;14887;51.252;7.470;2022-10-19T00:58:38;9.73;;;3.20;;
27438;SDS011;14887;51.252;7.470;2022-10-19T01:01:06;10.53;;;3.47;;
27438;SDS011;14887;51.252;7.470;2022-10-19T01:03:34;16.17;;;3.27;;
27438;SDS011;14887;51.252;7.470;2022-10-19T01:06:00;11.70;;;3.27;;
27438;SDS011;14887;51.252;7.470;2022-10-19T01:08:26;10.47;;;3.57;;
27438;SDS011;14887;51.252;7.470;2022-10-19T01:16:36;17.73;;;3.97;;
27438;SDS011;14887;51.252;7.470;2022-10-19T01:24:47;14.50;;;3.23;;
27438;SDS011;14887;51.252;7.470;2022-10-19T01:32:57;19.87;;;3.27;;
27438;SDS011;14887;51.252;7.470;2022-10-19T01:38:28;11.23;;;3.70;;
27438;SDS011;14887;51.252;7.470;2022-10-19T01:41:25;8.23;;;3.50;;
27438;SDS011;14887;51.252;7.470;2022-10-19T01:43:56;17.43;;;4.17;;
27438;SDS011;14887;51.252;7.470;2022-10-19T01:46:37;11.60;;;4.63;;
27438;SDS011;14887;51.252;7.470;2022-10-19T01:49:47;13.33;;;5.17;;
27438;SDS011;14887;51.252;7.470;2022-10-19T01:51:58;15.40;;;4.77;;
27438;SDS011;14887;51.252;7.470;2022-10-19T01:54:28;18.63;;;5.80;;
27438;SDS011;14887;51.252;7.470;2022-10-19T01:56:58;9.10;;;4.33;;
27438;SDS011;14887;51.252;7.470;2022-10-19T01:59:28;19.33;;;4.60;;
27438;SDS011;14887;51.252;7.470;2022-10-19T02:01:56;24.87;;;4.83;;
27438;SDS011;14887;51.252;7.470;2022-10-19T02:04:22;11.57;;;4.80;;
27438;SDS011;14887;51.252;7.470;2022-10-19T02:06:50;10.23;;;3.87;;
27438;SDS011;14887;51.252;7.470;2022-10-19T02:09:16;11.60;;;4.20;;
27438;SDS011;14887;51.252;7.470;2022-10-19T02:11:46;6.27;;;3.77;;
27438;SDS011;14887;51.252;7.470;2022-10-19T02:14:21;7.40;;;3.73;;
27438;SDS011;14887;51.252;7.470;2022-10-19T02:16:56;8.40;;;3.67;;
27438;SDS011;14887;51.252;7.470;2022-10-19T02:19:33;12.20;;;3.70;;
27438;SDS011;14887;51.252;7.470;2022-10-19T02:21:59;15.73;;;3.40;;
27438;SDS011;14887;51.252;7.470;2022-10-19T02:24:24;13.10;;;3.33;;
27438;SDS011;14887;51.252;7.470;2022-10-19T02:26:50;11.00;;;4.30;;
27438;SDS011;14887;51.252;7.470;2022-10-19T02:29:16;29.17;;;4.03;;
27438;SDS011;14887;51.252;7.470;2022-10-19T02:31:42;10.50;;;3.70;;
27438;SDS011;14887;51.252;7.470;2022-10-19T02:34:08;14.43;;;4.07;;
27438;SDS011;14887;51.252;7.470;2022-10-19T02:36:34;10.70;;;3.87;;
27438;SDS011;14887;51.252;7.470;2022-10-19T02:38:59;12.20;;;3.20;;
27438;SDS011;14887;51.252;7.470;2022-10-19T02:41:30;7.00;;;3.37;;
27438;SDS011;14887;51.252;7.470;2022-10-19T02:44:00;18.03;;;4.23;;
27438;SDS011;14887;51.252;7.470;2022-10-19T02:46:42;23.40;;;3.47;;
27438;SDS011;14887;51.252;7.470;2022-10-19T02:49:10;20.83;;;3.60;;
27438;SDS011;14887;51.252;7.470;2022-10-19T02:51:38;15.40;;;5.90;;
27438;SDS011;14887;51.252;7.470;2022-10-19T02:54:18;9.50;;;3.60;;
27438;SDS011;14887;51.252;7.470;2022-10-19T02:56:43;12.27;;;4.30;;
27438;SDS011;14887;51.252;7.470;2022-10-19T02:59:09;21.27;;;4.70;;
27438;SDS011;14887;51.252;7.470;2022-10-19T03:01:34;17.70;;;5.13;;
27438;SDS011;14887;51.252;7.470;2022-10-19T03:04:00;24.90;;;5.40;;
27438;SDS011;14887;51.252;7.470;2022-10-19T03:06:25;19.70;;;5.90;;
27438;SDS011;14887;51.252;7.470;2022-10-19T03:08:51;11.93;;;4.30;;
27438;SDS011;14887;51.252;7.470;2022-10-19T03:11:16;23.33;;;6.10;;
27438;SDS011;14887;51.252;7.470;2022-10-19T03:13:42;16.43;;;6.40;;
27438;SDS011;14887;51.252;7.470;2022-10-19T03:16:08;12.27;;;5.83;;
27438;SDS011;14887;51.252;7.470;2022-10-19T03:18:35;11.83;;;5.03;;
27438;SDS011;14887;51.252;7.470;2022-10-19T03:21:02;16.43;;;6.10;;
27438;SDS011;14887;51.252;7.470;2022-10-19T03:23:29;12.60;;;5.37;;
27438;SDS011;14887;51.252;7.470;2022-10-19T03:25:55;9.07;;;5.13;;
27438;SDS011;14887;51.252;7.470;2022-10-19T03:28:20;18.60;;;5.47;;
27438;SDS011;14887;51.252;7.470;2022-10-19T03:30:46;26.20;;;6.73;;
27438;SDS011;14887;51.252;7.470;2022-10-19T03:33:11;22.20;;;6.60;;
27438;SDS011;14887;51.252;7.470;2022-10-19T03:35:37;33.17;;;6.80;;
27438;SDS011;14887;51.252;7.470;2022-10-19T03:38:02;12.30;;;6.10;;
27438;SDS011;14887;51.252;7.470;2022-10-19T03:40:28;19.73;;;6.60;;
27438;SDS011;14887;51.252;7.470;2022-10-19T03:42:53;19.73;;;6.40;;
27438;SDS011;14887;51.252;7.470;2022-10-19T03:45:19;18.23;;;6.60;;
27438;SDS011;14887;51.252;7.470;2022-10-19T03:47:47;26.27;;;6.53;;
27438;SDS011;14887;51.252;7.470;2022-10-19T03:50:13;15.77;;;6.60;;
27438;SDS011;14887;51.252;7.470;2022-10-19T03:52:40;46.47;;;7.60;;
27438;SDS011;14887;51.252;7.470;2022-10-19T03:55:13;25.40;;;7.30;;
27438;SDS011;14887;51.252;7.470;2022-10-19T03:57:39;14.70;;;7.00;;
27438;SDS011;14887;51.252;7.470;2022-10-19T04:00:05;70.97;;;8.87;;
27438;SDS011;14887;51.252;7.470;2022-10-19T04:02:32;64.33;;;8.67;;
27438;SDS011;14887;51.252;7.470;2022-10-19T04:04:58;41.97;;;7.80;;
27438;SDS011;14887;51.252;7.470;2022-10-19T04:07:23;42.50;;;8.10;;
27438;SDS011;14887;51.252;7.470;2022-10-19T04:09:49;88.73;;;10.37;;
27438;SDS011;14887;51.252;7.470;2022-10-19T04:12:14;151.00;;;12.20;;
27438;SDS011;14887;51.252;7.470;2022-10-19T04:14:40;323.77;;;17.50;;
27438;SDS011;14887;51.252;7.470;2022-10-19T04:17:06;210.50;;;12.50;;
27438;SDS011;14887;51.252;7.470;2022-10-19T04:19:31;463.53;;;19.77;;
27438;SDS011;14887;51.252;7.470;2022-10-19T04:21:57;162.23;;;11.67;;
27438;SDS011;14887;51.252;7.470;2022-10-19T04:24:22;253.43;;;14.30;;
27438;SDS011;14887;51.252;7.470;2022-10-19T04:26:52;77.73;;;9.87;;
27438;SDS011;14887;51.252;7.470;2022-10-19T04:29:19;67.00;;;8.90;;
27438;SDS011;14887;51.252;7.470;2022-10-19T04:31:49;31.00;;;8.00;;
27438;SDS011;14887;51.252;7.470;2022-10-19T04:34:15;51.10;;;9.70;;
27438;SDS011;14887;51.252;7.470;2022-10-19T04:36:42;45.97;;;9.00;;
27438;SDS011;14887;51.252;7.470;2022-10-19T04:39:07;23.40;;;8.73;;
27438;SDS011;14887;51.252;7.470;2022-10-19T04:41:33;32.23;;;8.70;;
27438;SDS011;14887;51.252;7.470;2022-10-19T04:44:00;27.00;;;8.87;;
27438;SDS011;14887;51.252;7.470;2022-10-19T04:46:27;15.90;;;8.60;;
27438;SDS011;14887;51.252;7.470;2022-10-19T04:48:53;34.13;;;9.90;;
27438;SDS011;14887;51.252;7.470;2022-10-19T04:51:19;30.90;;;11.03;;
27438;SDS011;14887;51.252;7.470;2022-10-19T04:53:46;32.63;;;9.70;;
27438;SDS011;14887;51.252;7.470;2022-10-19T04:56:13;20.07;;;10.13;;
27438;SDS011;14887;51.252;7.470;2022-10-19T04:58:41;24.00;;;10.40;;
27438;SDS011;14887;51.252;7.470;2022-10-19T05:01:12;19.43;;;10.33;;
27438;SDS011;14887;51.252;7.470;2022-10-19T05:03:47;24.27;;;10.83;;
27438;SDS011;14887;51.252;7.470;2022-10-19T05:06:13;24.50;;;10.53;;
27438;SDS011;14887;51.252;7.470;2022-10-19T05:08:39;24.07;;;10.50;;
27438;SDS011;14887;51.252;7.470;2022-10-19T05:11:06;29.97;;;10.57;;
27438;SDS011;14887;51.252;7.470;2022-10-19T05:13:36;21.63;;;10.90;;
27438;SDS011;14887;51.252;7.470;2022-10-19T05:16:03;29.33;;;11.40;;
27438;SDS011;14887;51.252;7.470;2022-10-19T05:18:30;33.53;;;11.10;;
27438;SDS011;14887;51.252;7.470;2022-10-19T05:21:15;22.20;;;9.80;;
27438;SDS011;14887;51.252;7.470;2022-10-19T05:23:41;26.90;;;10.70;;
27438;SDS011;14887;51.252;7.470;2022-10-19T05:26:08;26.83;;;11.03;;
27438;SDS011;14887;51.252;7.470;2022-10-19T05:28:39;22.60;;;10.07;;
27438;SDS011;14887;51.252;7.470;2022-10-19T05:31:06;28.30;;;11.37;;
27438;SDS011;14887;51.252;7.470;2022-10-19T05:33:36;31.23;;;10.97;;
27438;SDS011;14887;51.252;7.470;2022-10-19T05:36:19;26.03;;;10.60;;
27438;SDS011;14887;51.252;7.470;2022-10-19T05:38:48;23.03;;;11.10;;
27438;SDS011;14887;51.252;7.470;2022-10-19T05:41:14;30.43;;;10.73;;
27438;SDS011;14887;51.252;7.470;2022-10-19T05:43:41;31.47;;;10.60;;
27438;SDS011;14887;51.252;7.470;2022-10-19T05:46:14;22.53;;;10.97;;
27438;SDS011;14887;51.252;7.470;2022-10-19T05:48:44;21.93;;;10.70;;
27438;SDS011;14887;51.252;7.470;2022-10-19T05:51:11;28.50;;;10.80;;
27438;SDS011;14887;51.252;7.470;2022-10-19T05:53:38;26.90;;;10.13;;
27438;SDS011;14887;51.252;7.470;2022-10-19T05:56:04;29.57;;;10.07;;
27438;SDS011;14887;51.252;7.470;2022-10-19T05:58:31;25.23;;;11.23;;
27438;SDS011;14887;51.252;7.470;2022-10-19T06:00:57;30.63;;;11.00;;
27438;SDS011;14887;51.252;7.470;2022-10-19T06:03:23;24.53;;;9.60;;
27438;SDS011;14887;51.252;7.470;2022-10-19T06:05:50;28.90;;;9.63;;
27438;SDS011;14887;51.252;7.470;2022-10-19T06:08:17;26.57;;;11.40;;
27438;SDS011;14887;51.252;7.470;2022-10-19T06:10:44;22.60;;;10.70;;
27438;SDS011;14887;51.252;7.470;2022-10-19T06:13:10;30.40;;;11.13;;
27438;SDS011;14887;51.252;7.470;2022-10-19T06:15:36;28.13;;;10.60;;
27438;SDS011;14887;51.252;7.470;2022-10-19T06:18:07;28.40;;;10.63;;
27438;SDS011;14887;51.252;7.470;2022-10-19T06:20:34;26.70;;;10.77;;
27438;SDS011;14887;51.252;7.470;2022-10-19T06:23:01;28.17;;;10.70;;
27438;SDS011;14887;51.252;7.470;2022-10-19T06:25:27;35.40;;;11.47;;
27438;SDS011;14887;51.252;7.470;2022-10-19T06:28:00;20.13;;;11.87;;
27438;SDS011;14887;51.252;7.470;2022-10-19T06:30:32;21.90;;;9.03;;
27438;SDS011;14887;51.252;7.470;2022-10-19T06:32:58;24.07;;;10.30;;
27438;SDS011;14887;51.252;7.470;2022-10-19T06:35:23;35.33;;;9.90;;
27438;SDS011;14887;51.252;7.470;2022-10-19T06:37:49;38.23;;;9.97;;
27438;SDS011;14887;51.252;7.470;2022-10-19T06:40:14;22.07;;;9.03;;
27438;SDS011;14887;51.252;7.470;2022-10-19T06:42:40;32.83;;;9.80;;
27438;SDS011;14887;51.252;7.470;2022-10-19T06:45:06;28.23;;;8.57;;
27438;SDS011;14887;51.252;7.470;2022-10-19T06:47:33;29.60;;;8.80;;
27438;SDS011;14887;51.252;7.470;2022-10-19T06:49:59;27.23;;;9.60;;
27438;SDS011;14887;51.252;7.470;2022-10-19T06:52:25;30.13;;;9.80;;
27438;SDS011;14887;51.252;7.470;2022-10-19T06:54:51;24.17;;;11.80;;
27438;SDS011;14887;51.252;7.470;2022-10-19T06:57:16;96.33;;;31.47;;
27438;SDS011;14887;51.252;7.470;2022-10-19T06:59:42;20.10;;;9.27;;
27438;SDS011;14887;51.252;7.470;2022-10-19T07:02:09;34.47;;;13.03;;
27438;SDS011;14887;51.252;7.470;2022-10-19T07:04:35;17.70;;;9.00;;
27438;SDS011;14887;51.252;7.470;2022-10-19T07:07:01;21.30;;;10.03;;
27438;SDS011;14887;51.252;7.470;2022-10-19T07:09:27;24.27;;;8.33;;
27438;SDS011;14887;51.252;7.470;2022-10-19T07:11:52;21.30;;;10.10;;
27438;SDS011;14887;51.252;7.470;2022-10-19T07:14:18;21.77;;;8.03;;
27438;SDS011;14887;51.252;7.470;2022-10-19T07:16:43;29.97;;;8.93;;
27438;SDS011;14887;51.252;7.470;2022-10-19T07:19:09;33.60;;;10.60;;
27438;SDS011;14887;51.252;7.470;2022-10-19T07:21:35;33.60;;;9.13;;
27438;SDS011;14887;51.252;7.470;2022-10-19T07:24:05;25.20;;;8.93;;
27438;SDS011;14887;51.252;7.470;2022-10-19T07:26:32;23.03;;;9.60;;
27438;SDS011;14887;51.252;7.470;2022-10-19T07:28:58;21.60;;;8.90;;
27438;SDS011;14887;51.252;7.470;2022-10-19T07:31:30;24.07;;;8.93;;
27438;SDS011;14887;51.252;7.470;2022-10-19T07:33:57;24.27;;;8.23;;
27438;SDS011;14887;51.252;7.470;2022-10-19T07:36:24;13.50;;;6.90;;
27438;SDS011;14887;51.252;7.470;2022-10-19T07:38:51;25.13;;;6.40;;
27438;SDS011;14887;51.252;7.470;2022-10-19T07:41:18;11.93;;;6.17;;
27438;SDS011;14887;51.252;7.470;2022-10-19T07:43:45;20.20;;;5.30;;
27438;SDS011;14887;51.252;7.470;2022-10-19T07:46:18;11.97;;;5.40;;
27438;SDS011;14887;51.252;7.470;2022-10-19T07:48:46;13.87;;;5.00;;
27438;SDS011;14887;51.252;7.470;2022-10-19T07:51:12;7.63;;;4.60;;
27438;SDS011;14887;51.252;7.470;2022-10-19T07:53:39;12.40;;;4.40;;
27438;SDS011;14887;51.252;7.470;2022-10-19T07:56:09;10.80;;;4.00;;
27438;SDS011;14887;51.252;7.470;2022-10-19T07:58:40;10.00;;;3.70;;
27438;SDS011;14887;51.252;7.470;2022-10-19T08:01:07;10.90;;;4.50;;
27438;SDS011;14887;51.252;7.470;2022-10-19T08:03:34;9.00;;;4.13;;
27438;SDS011;14887;51.252;7.470;2022-10-19T08:06:00;9.50;;;3.87;;
27438;SDS011;14887;51.252;7.470;2022-10-19T08:08:27;10.90;;;3.73;;
27438;SDS011;14887;51.252;7.470;2022-10-19T08:10:53;11.93;;;4.10;;
27438;SDS011;14887;51.252;7.470;2022-10-19T08:13:19;20.90;;;5.50;;
27438;SDS011;14887;51.252;7.470;2022-10-19T08:15:45;9.60;;;3.20;;
27438;SDS011;14887;51.252;7.470;2022-10-19T08:18:10;9.80;;;3.60;;
27438;SDS011;14887;51.252;7.470;2022-10-19T08:20:36;11.00;;;3.67;;
27438;SDS011;14887;51.252;7.470;2022-10-19T08:23:04;14.20;;;5.67;;
27438;SDS011;14887;51.252;7.470;2022-10-19T08:25:30;41.03;;;16.53;;
27438;SDS011;14887;51.252;7.470;2022-10-19T08:27:55;18.93;;;6.97;;
27438;SDS011;14887;51.252;7.470;2022-10-19T08:30:21;13.43;;;7.13;;
27438;SDS011;14887;51.252;7.470;2022-10-19T08:32:53;31.57;;;11.43;;
27438;SDS011;14887;51.252;7.470;2022-10-19T08:35:18;22.23;;;9.10;;
27438;SDS011;14887;51.252;7.470;2022-10-19T08:37:44;14.80;;;5.73;;
27438;SDS011;14887;51.252;7.470;2022-10-19T08:40:17;26.50;;;10.47;;
27438;SDS011;14887;51.252;7.470;2022-10-19T08:42:51;6.50;;;3.43;;
27438;SDS011;14887;51.252;7.470;2022-10-19T08:45:49;7.30;;;4.50;;
27438;SDS011;14887;51.252;7.470;2022-10-19T08:48:43;9.30;;;4.83;;
27438;SDS011;14887;51.252;7.470;2022-10-19T08:51:12;22.00;;;4.80;;
27438;SDS011;14887;51.252;7.470;2022-10-19T08:53:39;9.57;;;2.90;;
27438;SDS011;14887;51.252;7.470;2022-10-19T08:56:32;4.70;;;2.73;;
27438;SDS011;14887;51.252;7.470;2022-10-19T08:59:03;8.97;;;3.87;;
27438;SDS011;14887;51.252;7.470;2022-10-19T09:04:16;18.00;;;3.90;;
27438;SDS011;14887;51.252;7.470;2022-10-19T09:06:58;11.30;;;3.73;;
27438;SDS011;14887;51.252;7.470;2022-10-19T09:09:33;12.87;;;3.40;;
27438;SDS011;14887;51.252;7.470;2022-10-19T09:12:13;23.43;;;3.13;;
27438;SDS011;14887;51.252;7.470;2022-10-19T09:14:58;4.77;;;2.77;;
27438;SDS011;14887;51.252;7.470;2022-10-19T09:17:26;14.47;;;3.20;;
27438;SDS011;14887;51.252;7.470;2022-10-19T09:19:54;11.03;;;3.00;;
27438;SDS011;14887;51.252;7.470;2022-10-19T09:22:39;7.53;;;2.70;;
27438;SDS011;14887;51.252;7.470;2022-10-19T09:25:12;10.30;;;3.40;;
27438;SDS011;14887;51.252;7.470;2022-10-19T09:27:42;10.40;;;2.40;;
27438;SDS011;14887;51.252;7.470;2022-10-19T09:30:16;4.63;;;2.00;;
27438;SDS011;14887;51.252;7.470;2022-10-19T09:32:44;11.83;;;2.53;;
27438;SDS011;14887;51.252;7.470;2022-10-19T09:35:27;17.10;;;3.07;;
27438;SDS011;14887;51.252;7.470;2022-10-19T09:37:59;11.40;;;2.50;;
27438;SDS011;14887;51.252;7.470;2022-10-19T09:40:26;3.90;;;2.50;;
27438;SDS011;14887;51.252;7.470;2022-10-19T09:42:53;6.43;;;2.40;;
27438;SDS011;14887;51.252;7.470;2022-10-19T09:45:31;8.33;;;2.97;;
27438;SDS011;14887;51.252;7.470;2022-10-19T09:48:13;10.03;;;2.60;;
27438;SDS011;14887;51.252;7.470;2022-10-19T09:50:49;8.23;;;3.00;;
27438;SDS011;14887;51.252;7.470;2022-10-19T09:53:19;8.93;;;2.50;;
27438;SDS011;14887;51.252;7.470;2022-10-19T09:56:05;6.43;;;2.80;;
27438;SDS011;14887;51.252;7.470;2022-10-19T09:58:32;5.40;;;2.77;;
27438;SDS011;14887;51.252;7.470;2022-10-19T10:00:59;5.30;;;2.47;;
27438;SDS011;14887;51.252;7.470;2022-10-19T10:03:27;12.20;;;2.90;;
27438;SDS011;14887;51.252;7.470;2022-10-19T10:06:03;11.07;;;2.80;;
27438;SDS011;14887;51.252;7.470;2022-10-19T10:08:35;7.10;;;2.60;;
27438;SDS011;14887;51.252;7.470;2022-10-19T10:13:39;6.30;;;3.00;;
27438;SDS011;14887;51.252;7.470;2022-10-19T10:16:08;6.40;;;2.77;;
27438;SDS011;14887;51.252;7.470;2022-10-19T10:18:44;3.17;;;2.37;;
27438;SDS011;14887;51.252;7.470;2022-10-19T10:21:23;5.53;;;2.83;;
27438;SDS011;14887;51.252;7.470;2022-10-19T10:26:29;6.60;;;2.90;;
27438;SDS011;14887;51.252;7.470;2022-10-19T10:28:56;5.73;;;2.57;;
27438;SDS011;14887;51.252;7.470;2022-10-19T10:31:22;9.80;;;2.50;;
27438;SDS011;14887;51.252;7.470;2022-10-19T10:33:55;13.53;;;2.40;;
27438;SDS011;14887;51.252;7.470;2022-10-19T10:36:25;3.83;;;2.37;;
27438;SDS011;14887;51.252;7.470;2022-10-19T10:38:54;10.20;;;3.23;;
27438;SDS011;14887;51.252;7.470;2022-10-19T10:41:27;6.77;;;2.70;;
27438;SDS011;14887;51.252;7.470;2022-10-19T10:43:59;6.30;;;2.73;;
27438;SDS011;14887;51.252;7.470;2022-10-19T10:46:28;8.00;;;2.60;;
27438;SDS011;14887;51.252;7.470;2022-10-19T10:49:04;5.20;;;2.20;;
27438;SDS011;14887;51.252;7.470;2022-10-19T10:51:32;5.70;;;2.60;;
27438;SDS011;14887;51.252;7.470;2022-10-19T10:54:22;12.13;;;2.67;;
27438;SDS011;14887;51.252;7.470;2022-10-19T11:05:25;11.70;;;2.67;;
27438;SDS011;14887;51.252;7.470;2022-10-19T11:10:50;5.13;;;2.40;;
27438;SDS011;14887;51.252;7.470;2022-10-19T11:13:24;11.50;;;2.63;;
27438;SDS011;14887;51.252;7.470;2022-10-19T11:19:18;10.60;;;2.10;;
27438;SDS011;14887;51.252;7.470;2022-10-19T11:21:54;8.03;;;2.37;;
27438;SDS011;14887;51.252;7.470;2022-10-19T11:30:02;4.43;;;1.80;;
27438;SDS011;14887;51.252;7.470;2022-10-19T11:38:20;3.97;;;1.70;;
27438;SDS011;14887;51.252;7.470;2022-10-19T11:46:57;1.90;;;1.20;;
27438;SDS011;14887;51.252;7.470;2022-10-19T11:49:49;6.50;;;2.80;;
27438;SDS011;14887;51.252;7.470;2022-10-19T11:55:26;6.50;;;2.10;;
27438;SDS011;14887;51.252;7.470;2022-10-19T12:00:29;5.87;;;1.67;;
27438;SDS011;14887;51.252;7.470;2022-10-19T12:09:00;5.73;;;2.07;;
27438;SDS011;14887;51.252;7.470;2022-10-19T12:11:43;4.90;;;1.30;;
27438;SDS011;14887;51.252;7.470;2022-10-19T12:14:21;7.40;;;1.80;;
27438;SDS011;14887;51.252;7.470;2022-10-19T12:16:50;6.93;;;2.20;;
27438;SDS011;14887;51.252;7.470;2022-10-19T12:19:21;5.67;;;1.80;;
27438;SDS011;14887;51.252;7.470;2022-10-19T12:21:58;5.77;;;1.80;;
27438;SDS011;14887;51.252;7.470;2022-10-19T12:24:26;7.50;;;1.67;;
27438;SDS011;14887;51.252;7.470;2022-10-19T12:26:53;6.10;;;2.03;;
27438;SDS011;14887;51.252;7.470;2022-10-19T12:29:20;2.93;;;1.70;;
27438;SDS011;14887;51.252;7.470;2022-10-19T12:31:52;3.10;;;1.63;;
27438;SDS011;14887;51.252;7.470;2022-10-19T12:34:23;3.53;;;1.30;;
27438;SDS011;14887;51.252;7.470;2022-10-19T12:40:00;4.63;;;1.30;;
27438;SDS011;14887;51.252;7.470;2022-10-19T12:42:28;5.70;;;1.67;;
27438;SDS011;14887;51.252;7.470;2022-10-19T12:48:28;3.13;;;1.33;;
27438;SDS011;14887;51.252;7.470;2022-10-19T12:53:23;4.67;;;1.50;;
27438;SDS011;14887;51.252;7.470;2022-10-19T12:56:14;13.00;;;1.93;;
27438;SDS011;14887;51.252;7.470;2022-10-19T12:58:54;3.07;;;2.00;;
27438;SDS011;14887;51.252;7.470;2022-10-19T13:04:17;2.20;;;1.27;;
27438;SDS011;14887;51.252;7.470;2022-10-19T13:09:36;4.27;;;1.30;;
27438;SDS011;14887;51.252;7.470;2022-10-19T13:14:41;6.50;;;2.73;;
27438;SDS011;14887;51.252;7.470;2022-10-19T13:25:27;5.57;;;1.73;;
27438;SDS011;14887;51.252;7.470;2022-10-19T13:27:59;2.40;;;1.53;;
27438;SDS011;14887;51.252;7.470;2022-10-19T13:38:30;3.87;;;1.00;;
27438;SDS011;14887;51.252;7.470;2022-10-19T13:41:00;8.43;;;4.33;;
27438;SDS011;14887;51.252;7.470;2022-10-19T13:52:08;7.07;;;2.30;;
27438;SDS011;14887;51.252;7.470;2022-10-19T13:57:07;10.40;;;1.00;;
27438;SDS011;14887;51.252;7.470;2022-10-19T14:10:41;4.93;;;1.20;;
27438;SDS011;14887;51.252;7.470;2022-10-19T14:13:10;7.83;;;1.10;;
27438;SDS011;14887;51.252;7.470;2022-10-19T14:15:38;2.13;;;1.13;;
27438;SDS011;14887;51.252;7.470;2022-10-19T14:18:20;3.03;;;1.00;;
27438;SDS011;14887;51.252;7.470;2022-10-19T14:20:56;6.93;;;1.07;;
27438;SDS011;14887;51.252;7.470;2022-10-19T14:23:27;7.03;;;1.40;;
27438;SDS011;14887;51.252;7.470;2022-10-19T14:25:59;9.93;;;1.23;;
27438;SDS011;14887;51.252;7.470;2022-10-19T14:28:27;5.27;;;2.40;;
27438;SDS011;14887;51.252;7.470;2022-10-19T14:30:55;2.33;;;1.13;;
27438;SDS011;14887;51.252;7.470;2022-10-19T14:33:27;6.87;;;1.53;;
27438;SDS011;14887;51.252;7.470;2022-10-19T14:35:55;4.20;;;1.90;;
27438;SDS011;14887;51.252;7.470;2022-10-19T14:38:34;6.93;;;1.80;;
27438;SDS011;14887;51.252;7.470;2022-10-19T14:41:03;4.60;;;1.47;;
27438;SDS011;14887;51.252;7.470;2022-10-19T14:43:30;3.17;;;1.27;;
27438;SDS011;14887;51.252;7.470;2022-10-19T14:46:02;5.73;;;1.27;;
27438;SDS011;14887;51.252;7.470;2022-10-19T14:48:27;1.53;;;0.93;;
27438;SDS011;14887;51.252;7.470;2022-10-19T14:50:54;5.83;;;1.60;;
27438;SDS011;14887;51.252;7.470;2022-10-19T14:56:49;3.83;;;1.60;;
27438;SDS011;14887;51.252;7.470;2022-10-19T14:59:46;2.83;;;1.20;;
27438;SDS011;14887;51.252;7.470;2022-10-19T15:01:56;3.00;;;1.27;;
27438;SDS011;14887;51.252;7.470;2022-10-19T15:04:25;2.40;;;1.27;;
27438;SDS011;14887;51.252;7.470;2022-10-19T15:06:54;1.70;;;1.00;;
27438;SDS011;14887;51.252;7.470;2022-10-19T15:09:41;1.57;;;1.07;;
27438;SDS011;14887;51.252;7.470;2022-10-19T15:12:14;6.47;;;0.93;;
27438;SDS011;14887;51.252;7.470;2022-10-19T15:14:43;3.10;;;1.03;;
27438;SDS011;14887;51.252;7.470;2022-10-19T15:17:20;3.80;;;1.40;;
27438;SDS011;14887;51.252;7.470;2022-10-19T15:19:48;9.13;;;1.20;;
27438;SDS011;14887;51.252;7.470;2022-10-19T15:22:21;13.40;;;1.23;;
27438;SDS011;14887;51.252;7.470;2022-10-19T15:27:36;6.13;;;1.40;;
27438;SDS011;14887;51.252;7.470;2022-10-19T15:32:41;2.50;;;1.40;;
27438;SDS011;14887;51.252;7.470;2022-10-19T15:35:11;6.33;;;1.80;;
27438;SDS011;14887;51.252;7.470;2022-10-19T15:37:43;8.40;;;2.10;;
27438;SDS011;14887;51.252;7.470;2022-10-19T15:40:12;5.50;;;2.03;;
27438;SDS011;14887;51.252;7.470;2022-10-19T15:42:55;4.17;;;1.27;;
27438;SDS011;14887;51.252;7.470;2022-10-19T15:45:28;6.93;;;1.20;;
27438;SDS011;14887;51.252;7.470;2022-10-19T15:50:45;3.20;;;1.40;;
27438;SDS011;14887;51.252;7.470;2022-10-19T15:53:13;3.07;;;1.07;;
27438;SDS011;14887;51.252;7.470;2022-10-19T15:55:41;12.77;;;1.90;;
27438;SDS011;14887;51.252;7.470;2022-10-19T15:58:07;4.70;;;1.33;;
27438;SDS011;14887;51.252;7.470;2022-10-19T16:00:34;6.87;;;2.50;;
27438;SDS011;14887;51.252;7.470;2022-10-19T16:03:00;5.07;;;1.80;;
27438;SDS011;14887;51.252;7.470;2022-10-19T16:05:26;13.53;;;2.30;;
27438;SDS011;14887;51.252;7.470;2022-10-19T16:07:51;2.53;;;1.50;;
27438;SDS011;14887;51.252;7.470;2022-10-19T16:10:22;9.70;;;1.53;;
27438;SDS011;14887;51.252;7.470;2022-10-19T16:12:49;12.77;;;4.07;;
27438;SDS011;14887;51.252;7.470;2022-10-19T16:15:16;10.30;;;3.03;;
27438;SDS011;14887;51.252;7.470;2022-10-19T16:17:47;6.17;;;1.83;;
27438;SDS011;14887;51.252;7.470;2022-10-19T16:20:21;8.73;;;2.07;;
27438;SDS011;14887;51.252;7.470;2022-10-19T16:22:48;7.73;;;2.80;;
27438;SDS011;14887;51.252;7.470;2022-10-19T16:25:14;3.43;;;2.13;;
27438;SDS011;14887;51.252;7.470;2022-10-19T16:27:40;10.33;;;3.97;;
27438;SDS011;14887;51.252;7.470;2022-10-19T16:30:06;8.67;;;2.17;;
27438;SDS011;14887;51.252;7.470;2022-10-19T16:32:32;2.73;;;2.10;;
27438;SDS011;14887;51.252;7.470;2022-10-19T16:34:58;15.63;;;2.23;;
27438;SDS011;14887;51.252;7.470;2022-10-19T16:37:23;2.47;;;2.00;;
27438;SDS011;14887;51.252;7.470;2022-10-19T16:39:49;3.37;;;1.80;;
27438;SDS011;14887;51.252;7.470;2022-10-19T16:42:14;13.93;;;2.27;;
27438;SDS011;14887;51.252;7.470;2022-10-19T16:44:40;8.03;;;1.93;;
27438;SDS011;14887;51.252;7.470;2022-10-19T16:47:06;2.60;;;1.30;;
27438;SDS011;14887;51.252;7.470;2022-10-19T16:49:31;7.60;;;2.07;;
27438;SDS011;14887;51.252;7.470;2022-10-19T16:51:57;4.00;;;1.93;;
27438;SDS011;14887;51.252;7.470;2022-10-19T16:54:24;6.03;;;2.67;;
27438;SDS011;14887;51.252;7.470;2022-10-19T16:56:50;13.20;;;2.43;;
27438;SDS011;14887;51.252;7.470;2022-10-19T16:59:16;5.17;;;2.23;;
27438;SDS011;14887;51.252;7.470;2022-10-19T17:01:42;7.57;;;2.20;;
27438;SDS011;14887;51.252;7.470;2022-10-19T17:04:09;4.23;;;1.93;;
27438;SDS011;14887;51.252;7.470;2022-10-19T17:06:36;7.40;;;2.03;;
27438;SDS011;14887;51.252;7.470;2022-10-19T17:09:02;2.73;;;1.93;;
27438;SDS011;14887;51.252;7.470;2022-10-19T17:11:31;3.27;;;1.70;;
27438;SDS011;14887;51.252;7.470;2022-10-19T17:14:01;11.20;;;2.80;;